createdAt,value
2022-11-29T00:00:16.791Z,51.92
2022-11-29T00:00:39.520Z,49.58
2022-11-29T00:01:04.471Z,51.40
2022-11-29T00:01:28.079Z,51.97
2022-11-29T00:01:50.829Z,51.67
2022-11-29T00:02:13.670Z,51.47
2022-11-29T00:02:36.696Z,51.05
2022-11-29T00:03:01.346Z,50.90
2022-11-29T00:03:24.515Z,51.08
2022-11-29T00:03:47.293Z,50.70
2022-11-29T00:04:12.151Z,50.80
2022-11-29T00:04:35.030Z,49.55
2022-11-29T00:04:57.842Z,51.45
2022-11-29T00:05:20.516Z,52.35
2022-11-29T00:05:43.245Z,50.75
2022-11-29T00:06:08.339Z,50.80
2022-11-29T00:06:32.037Z,51.60
2022-11-29T00:06:54.730Z,51.10
2022-11-29T00:07:17.649Z,52.42
2022-11-29T00:07:40.374Z,52.03
2022-11-29T00:08:03.130Z,50.25
2022-11-29T00:08:25.850Z,50.47
2022-11-29T00:08:48.618Z,51.75
2022-11-29T00:09:12.765Z,51.72
2022-11-29T00:09:35.516Z,52.00
2022-11-29T00:09:58.215Z,52.40
2022-11-29T00:10:21.001Z,52.78
2022-11-29T00:10:43.770Z,52.72
2022-11-29T00:11:09.030Z,50.53
2022-11-29T00:11:51.751Z,52.85
2022-11-29T00:12:14.608Z,52.88
2022-11-29T00:12:37.308Z,53.33
2022-11-29T00:12:59.990Z,52.90
2022-11-29T00:13:22.716Z,52.83
2022-11-29T00:13:45.435Z,51.85
2022-11-29T00:14:11.031Z,52.10
2022-11-29T00:14:33.751Z,50.58
2022-11-29T00:14:56.461Z,52.42
2022-11-29T00:15:19.140Z,52.60
2022-11-29T00:15:41.937Z,52.47
2022-11-29T00:16:05.425Z,51.92
2022-11-29T00:16:28.290Z,53.25
2022-11-29T00:16:52.093Z,52.45
2022-11-29T00:17:15.000Z,52.30
2022-11-29T00:17:37.767Z,52.72
2022-11-29T00:18:01.910Z,50.63
2022-11-29T00:18:24.650Z,51.63
2022-11-29T00:18:49.065Z,52.50
2022-11-29T00:19:12.771Z,52.60
2022-11-29T00:19:36.027Z,52.42
2022-11-29T00:19:58.706Z,51.72
2022-11-29T00:20:21.838Z,53.08
2022-11-29T00:20:44.632Z,53.08
2022-11-29T00:21:07.895Z,52.88
2022-11-29T00:21:30.534Z,53.88
2022-11-29T00:21:53.261Z,53.25
2022-11-29T00:22:15.886Z,54.00
2022-11-29T00:22:38.804Z,53.88
2022-11-29T00:23:01.755Z,52.97
2022-11-29T00:23:24.624Z,53.20
2022-11-29T00:23:47.350Z,54.95
2022-11-29T00:24:10.328Z,54.50
2022-11-29T00:24:33.255Z,54.35
2022-11-29T00:24:56.015Z,54.30
2022-11-29T00:25:18.794Z,54.05
2022-11-29T00:25:43.815Z,54.97
2022-11-29T00:26:07.073Z,53.90
2022-11-29T00:26:29.692Z,54.03
2022-11-29T00:26:52.463Z,55.40
2022-11-29T00:27:15.160Z,56.78
2022-11-29T00:27:37.967Z,54.83
2022-11-29T00:28:00.735Z,55.45
2022-11-29T00:28:23.467Z,55.72
2022-11-29T00:28:46.230Z,55.78
2022-11-29T00:29:10.206Z,54.83
2022-11-29T00:29:32.975Z,55.22
2022-11-29T00:29:55.750Z,55.97
2022-11-29T00:30:18.588Z,55.83
2022-11-29T00:30:41.310Z,55.67
2022-11-29T00:31:14.765Z,55.88
2022-11-29T00:31:37.791Z,54.47
2022-11-29T00:32:00.731Z,53.05
2022-11-29T00:32:23.511Z,54.95
2022-11-29T00:32:46.227Z,55.10
2022-11-29T00:33:10.545Z,54.20
2022-11-29T00:33:33.261Z,54.60
2022-11-29T00:33:56.571Z,56.22
2022-11-29T00:34:19.345Z,55.03
2022-11-29T00:34:42.370Z,54.80
2022-11-29T00:35:09.669Z,53.97
2022-11-29T00:35:32.671Z,54.55
2022-11-29T00:35:55.455Z,53.97
2022-11-29T00:36:18.302Z,55.25
2022-11-29T00:36:41.122Z,56.35
2022-11-29T00:37:06.651Z,55.17
2022-11-29T00:37:29.375Z,56.10
2022-11-29T00:37:52.150Z,56.08
2022-11-29T00:38:14.905Z,55.35
2022-11-29T00:38:37.591Z,56.30
2022-11-29T00:39:00.338Z,55.47
2022-11-29T00:39:23.095Z,56.40
2022-11-29T00:39:45.797Z,55.45
2022-11-29T00:40:09.751Z,55.20
2022-11-29T00:40:33.430Z,54.97
2022-11-29T00:40:56.240Z,54.50
2022-11-29T00:41:19.018Z,55.10
2022-11-29T00:41:41.875Z,54.80
2022-11-29T00:42:04.717Z,55.00
2022-11-29T00:42:27.386Z,54.60
2022-11-29T00:42:50.095Z,55.53
2022-11-29T00:43:12.782Z,55.42
2022-11-29T00:43:36.031Z,54.75
2022-11-29T00:43:58.870Z,55.15
2022-11-29T00:44:21.590Z,57.22
2022-11-29T00:44:44.490Z,57.28
2022-11-29T00:45:08.685Z,57.10
2022-11-29T00:45:31.370Z,55.75
2022-11-29T00:45:54.124Z,57.50
2022-11-29T00:46:17.001Z,57.08
2022-11-29T00:46:39.758Z,56.53
2022-11-29T00:47:02.566Z,57.65
2022-11-29T00:47:25.301Z,57.50
2022-11-29T00:47:48.070Z,58.53
2022-11-29T00:48:12.271Z,59.08
2022-11-29T00:48:35.110Z,57.88
2022-11-29T00:48:57.819Z,58.60
2022-11-29T00:49:20.516Z,61.00
2022-11-29T00:49:43.212Z,59.83
2022-11-29T00:50:07.270Z,60.05
2022-11-29T00:50:29.935Z,57.72
2022-11-29T00:50:52.645Z,57.92
2022-11-29T00:51:15.350Z,59.00
2022-11-29T00:51:40.930Z,58.83
2022-11-29T00:52:03.735Z,57.53
2022-11-29T00:52:26.455Z,58.30
2022-11-29T00:52:49.790Z,59.75
2022-11-29T00:53:12.512Z,58.55
2022-11-29T00:53:35.751Z,57.60
2022-11-29T00:53:58.385Z,55.58
2022-11-29T00:54:21.130Z,56.70
2022-11-29T00:54:43.971Z,57.08
2022-11-29T00:55:07.881Z,57.55
2022-11-29T00:55:30.667Z,59.15
2022-11-29T00:55:53.665Z,58.17
2022-11-29T00:56:16.471Z,57.45
2022-11-29T00:56:39.190Z,57.10
2022-11-29T00:57:01.992Z,57.05
2022-11-29T00:57:24.640Z,57.00
2022-11-29T00:57:47.361Z,57.33
2022-11-29T00:58:10.070Z,56.42
2022-11-29T00:58:32.808Z,56.70
2022-11-29T00:58:55.691Z,54.92
2022-11-29T00:59:18.471Z,55.55
2022-11-29T00:59:41.221Z,56.58
2022-11-29T01:00:04.656Z,55.95
2022-11-29T01:00:27.386Z,57.13
2022-11-29T01:00:50.170Z,57.13
2022-11-29T01:01:12.984Z,57.80
2022-11-29T01:01:35.786Z,56.78
2022-11-29T01:01:58.585Z,55.38
2022-11-29T01:02:21.380Z,55.10
2022-11-29T01:02:45.821Z,56.05
2022-11-29T01:03:08.536Z,57.38
2022-11-29T01:03:32.875Z,57.53
2022-11-29T01:03:55.527Z,57.65
2022-11-29T01:04:18.317Z,57.17
2022-11-29T01:04:41.168Z,56.80
2022-11-29T01:05:04.115Z,56.50
2022-11-29T01:05:26.825Z,56.45
2022-11-29T01:05:49.570Z,55.85
2022-11-29T01:06:13.470Z,58.72
2022-11-29T01:06:36.095Z,56.85
2022-11-29T01:06:58.991Z,57.22
2022-11-29T01:07:21.772Z,56.70
2022-11-29T01:07:44.523Z,56.13
2022-11-29T01:08:07.400Z,57.38
2022-11-29T01:08:30.140Z,56.85
2022-11-29T01:08:54.250Z,55.92
2022-11-29T01:09:16.950Z,57.22
2022-11-29T01:09:40.096Z,57.40
2022-11-29T01:10:04.410Z,57.70
2022-11-29T01:10:27.047Z,57.60
2022-11-29T01:10:49.751Z,56.42
2022-11-29T01:11:14.080Z,58.22
2022-11-29T01:11:36.852Z,57.92
2022-11-29T01:11:59.546Z,59.05
2022-11-29T01:12:22.276Z,57.55
2022-11-29T01:12:44.909Z,58.92
2022-11-29T01:13:07.580Z,57.40
2022-11-29T01:13:30.396Z,58.17
2022-11-29T01:13:55.506Z,58.10
2022-11-29T01:14:19.300Z,60.22
2022-11-29T01:14:43.165Z,58.17
2022-11-29T01:15:07.208Z,57.28
2022-11-29T01:15:29.846Z,57.22
2022-11-29T01:15:56.236Z,57.20
2022-11-29T01:16:19.100Z,57.67
2022-11-29T01:16:41.981Z,56.17
2022-11-29T01:17:04.781Z,57.40
2022-11-29T01:17:27.525Z,56.53
2022-11-29T01:17:50.575Z,56.72
2022-11-29T01:18:13.335Z,55.13
2022-11-29T01:18:37.630Z,54.85
2022-11-29T01:19:00.651Z,55.40
2022-11-29T01:19:23.380Z,55.17
2022-11-29T01:19:50.775Z,54.60
2022-11-29T01:20:14.152Z,54.38
2022-11-29T01:20:36.945Z,53.70
2022-11-29T01:21:00.233Z,53.10
2022-11-29T01:21:24.321Z,52.72
2022-11-29T01:21:46.986Z,53.95
2022-11-29T01:22:09.755Z,55.72
2022-11-29T01:22:32.475Z,55.38
2022-11-29T01:22:55.191Z,54.45
2022-11-29T01:23:17.795Z,53.97
2022-11-29T01:23:40.775Z,54.97
2022-11-29T01:24:03.609Z,54.33
2022-11-29T01:24:26.376Z,54.90
2022-11-29T01:24:49.340Z,54.92
2022-11-29T01:25:13.212Z,55.85
2022-11-29T01:25:35.885Z,54.25
2022-11-29T01:26:00.092Z,56.38
2022-11-29T01:26:23.979Z,56.65
2022-11-29T01:26:46.800Z,55.33
2022-11-29T01:27:10.271Z,55.35
2022-11-29T01:27:33.035Z,56.80
2022-11-29T01:27:56.180Z,54.08
2022-11-29T01:28:19.905Z,54.60
2022-11-29T01:28:42.615Z,54.90
2022-11-29T01:29:05.386Z,55.67
2022-11-29T01:29:28.610Z,56.42
2022-11-29T01:29:51.296Z,55.45
2022-11-29T01:30:14.496Z,54.30
2022-11-29T01:30:38.212Z,55.63
2022-11-29T01:31:07.709Z,55.28
2022-11-29T01:31:32.775Z,56.00
2022-11-29T01:31:58.040Z,53.25
2022-11-29T01:32:20.687Z,54.83
2022-11-29T01:32:43.435Z,53.15
2022-11-29T01:33:06.172Z,55.30
2022-11-29T01:33:28.951Z,54.25
2022-11-29T01:33:55.166Z,55.28
2022-11-29T01:34:17.834Z,55.25
2022-11-29T01:34:40.624Z,54.20
2022-11-29T01:35:03.522Z,54.75
2022-11-29T01:35:26.311Z,55.47
2022-11-29T01:35:49.602Z,56.03
2022-11-29T01:36:12.878Z,55.55
2022-11-29T01:36:35.834Z,55.08
2022-11-29T01:36:58.938Z,53.70
2022-11-29T01:37:21.681Z,55.17
2022-11-29T01:37:44.510Z,54.80
2022-11-29T01:38:07.190Z,53.97
2022-11-29T01:38:30.441Z,54.35
2022-11-29T01:38:53.127Z,54.03
2022-11-29T01:39:15.807Z,56.15
2022-11-29T01:39:38.476Z,55.75
2022-11-29T01:40:01.222Z,54.22
2022-11-29T01:40:23.890Z,53.78
2022-11-29T01:40:48.014Z,53.58
2022-11-29T01:41:12.818Z,53.20
2022-11-29T01:41:36.793Z,54.13
2022-11-29T01:42:00.818Z,54.35
2022-11-29T01:42:23.532Z,54.80
2022-11-29T01:42:46.590Z,54.10
2022-11-29T01:43:13.763Z,54.80
2022-11-29T01:43:54.565Z,54.20
2022-11-29T01:44:50.345Z,54.67
2022-11-29T01:45:21.608Z,55.28
2022-11-29T01:45:44.611Z,56.08
2022-11-29T01:46:07.468Z,55.55
2022-11-29T01:46:31.134Z,55.08
2022-11-29T01:46:54.625Z,53.85
2022-11-29T01:47:17.376Z,54.90
2022-11-29T01:47:41.092Z,53.80
2022-11-29T01:48:04.667Z,51.92
2022-11-29T01:48:28.851Z,53.30
2022-11-29T01:48:54.735Z,52.28
2022-11-29T01:49:18.885Z,53.38
2022-11-29T01:49:42.716Z,54.35
2022-11-29T01:50:07.406Z,53.72
2022-11-29T01:50:30.237Z,52.92
2022-11-29T01:50:53.010Z,54.30
2022-11-29T01:51:15.705Z,54.55
2022-11-29T01:51:39.430Z,56.05
2022-11-29T01:52:04.216Z,54.38
2022-11-29T01:52:28.170Z,54.33
2022-11-29T01:52:50.846Z,53.92
2022-11-29T01:53:13.751Z,54.38
2022-11-29T01:53:36.616Z,53.47
2022-11-29T01:53:59.541Z,54.80
2022-11-29T01:54:22.353Z,56.38
2022-11-29T01:54:47.139Z,55.75
2022-11-29T01:55:10.377Z,54.95
2022-11-29T01:55:33.365Z,53.72
2022-11-29T01:55:58.429Z,53.53
2022-11-29T01:56:21.211Z,54.40
2022-11-29T01:56:43.995Z,53.67
2022-11-29T01:57:07.675Z,54.45
2022-11-29T01:57:30.477Z,54.05
2022-11-29T01:57:53.352Z,54.38
2022-11-29T01:58:16.836Z,53.97
2022-11-29T01:58:39.871Z,54.88
2022-11-29T01:59:03.356Z,53.72
2022-11-29T01:59:27.193Z,52.70
2022-11-29T01:59:51.371Z,53.20
2022-11-29T02:00:16.370Z,53.47
2022-11-29T02:00:39.015Z,53.30
2022-11-29T02:01:04.210Z,52.65
2022-11-29T02:01:27.043Z,53.53
2022-11-29T02:01:49.816Z,54.40
2022-11-29T02:02:14.116Z,53.65
2022-11-29T02:02:38.768Z,52.42
2022-11-29T02:03:04.046Z,54.42
2022-11-29T02:03:26.762Z,54.08
2022-11-29T02:03:49.512Z,52.10
2022-11-29T02:04:13.822Z,52.60
2022-11-29T02:04:36.545Z,53.50
2022-11-29T02:04:59.680Z,53.85
2022-11-29T02:05:25.272Z,52.35
2022-11-29T02:05:49.284Z,53.92
2022-11-29T02:06:11.991Z,51.97
2022-11-29T02:06:34.726Z,52.25
2022-11-29T02:06:57.425Z,52.42
2022-11-29T02:07:20.169Z,53.80
2022-11-29T02:07:47.444Z,51.63
2022-11-29T02:08:13.572Z,51.47
2022-11-29T02:08:38.132Z,50.95
2022-11-29T02:09:00.927Z,50.80
2022-11-29T02:09:23.666Z,50.63
2022-11-29T02:09:46.392Z,50.72
2022-11-29T02:10:10.246Z,51.05
2022-11-29T02:10:40.631Z,51.95
2022-11-29T02:11:17.166Z,50.80
2022-11-29T02:12:00.940Z,51.00
2022-11-29T02:12:27.515Z,50.28
2022-11-29T02:12:55.434Z,50.75
2022-11-29T02:13:23.171Z,50.80
2022-11-29T02:13:49.525Z,50.35
2022-11-29T02:14:25.111Z,50.88
2022-11-29T02:15:05.757Z,51.55
2022-11-29T02:15:37.983Z,50.50
2022-11-29T02:16:04.248Z,50.90
2022-11-29T02:16:29.492Z,51.58
2022-11-29T02:16:56.818Z,52.22
2022-11-29T02:17:23.501Z,51.28
2022-11-29T02:17:58.492Z,52.15
2022-11-29T02:18:22.714Z,52.35
2022-11-29T02:18:50.291Z,50.20
2022-11-29T02:19:22.556Z,52.03
2022-11-29T02:20:10.407Z,53.78
2022-11-29T02:20:51.670Z,51.50
2022-11-29T02:21:27.830Z,51.65
2022-11-29T02:21:51.996Z,51.88
2022-11-29T02:22:15.581Z,52.38
2022-11-29T02:22:40.535Z,51.80
2022-11-29T02:23:08.950Z,50.88
2022-11-29T02:23:51.130Z,52.20
2022-11-29T02:24:53.130Z,50.88
2022-11-29T02:25:39.531Z,51.42
2022-11-29T02:26:07.997Z,51.63
2022-11-29T02:26:52.169Z,52.08
2022-11-29T02:27:30.535Z,52.67
2022-11-29T02:28:25.587Z,52.15
2022-11-29T02:29:18.077Z,52.15
2022-11-29T02:30:10.887Z,53.28
2022-11-29T02:30:59.390Z,52.53
2022-11-29T02:31:44.228Z,52.70
2022-11-29T02:32:30.400Z,54.47
2022-11-29T02:33:23.451Z,54.00
2022-11-29T02:34:00.542Z,52.85
2022-11-29T02:34:51.470Z,52.00
2022-11-29T02:35:20.755Z,54.45
2022-11-29T02:35:56.931Z,52.83
2022-11-29T02:36:49.251Z,53.53
2022-11-29T02:37:21.686Z,54.05
2022-11-29T02:37:54.213Z,54.55
2022-11-29T02:38:25.346Z,53.70
2022-11-29T02:39:07.350Z,52.42
2022-11-29T02:40:05.760Z,52.97
2022-11-29T02:40:37.433Z,53.13
2022-11-29T02:41:15.666Z,52.40
2022-11-29T02:41:47.362Z,53.50
2022-11-29T02:42:54.096Z,52.88
2022-11-29T02:43:51.130Z,52.80
2022-11-29T02:44:42.849Z,53.85
2022-11-29T02:45:09.906Z,53.47
2022-11-29T02:45:43.955Z,53.30
2022-11-29T02:46:17.177Z,53.55
2022-11-29T02:46:47.357Z,53.70
2022-11-29T02:47:17.102Z,54.33
2022-11-29T02:47:50.726Z,54.17
2022-11-29T02:48:27.170Z,54.25
2022-11-29T02:48:53.796Z,52.42
2022-11-29T02:49:20.320Z,54.67
2022-11-29T02:49:55.501Z,53.13
2022-11-29T02:50:20.243Z,54.58
2022-11-29T02:50:44.228Z,54.55
2022-11-29T02:51:08.510Z,52.28
2022-11-29T02:51:35.774Z,52.42
2022-11-29T02:52:00.476Z,51.47
2022-11-29T02:52:30.346Z,52.17
2022-11-29T02:52:59.837Z,50.40
2022-11-29T02:53:25.112Z,51.75
2022-11-29T02:53:51.371Z,50.25
2022-11-29T02:54:17.650Z,50.65
2022-11-29T02:54:45.727Z,51.92
2022-11-29T02:55:11.986Z,53.13
2022-11-29T02:55:39.082Z,54.08
2022-11-29T02:56:07.207Z,53.53
2022-11-29T02:56:32.632Z,52.65
2022-11-29T02:56:57.259Z,52.90
2022-11-29T02:57:22.237Z,51.97
2022-11-29T02:57:50.231Z,53.10
2022-11-29T02:58:17.611Z,52.50
2022-11-29T02:58:44.157Z,53.42
2022-11-29T02:59:11.351Z,55.13
2022-11-29T02:59:41.126Z,55.30
2022-11-29T03:00:05.862Z,56.75
2022-11-29T03:00:28.658Z,55.55
2022-11-29T03:00:58.301Z,56.50
2022-11-29T03:01:24.510Z,55.05
2022-11-29T03:01:50.526Z,54.65
2022-11-29T03:02:20.187Z,54.40
2022-11-29T03:02:48.479Z,55.72
2022-11-29T03:03:14.551Z,55.40
2022-11-29T03:03:39.197Z,54.45
2022-11-29T03:04:04.796Z,54.75
2022-11-29T03:04:31.860Z,55.10
2022-11-29T03:04:58.230Z,53.88
2022-11-29T03:05:24.115Z,53.92
2022-11-29T03:05:50.071Z,53.25
2022-11-29T03:06:17.980Z,53.55
2022-11-29T03:06:44.608Z,53.53
2022-11-29T03:07:12.066Z,54.63
2022-11-29T03:07:39.599Z,53.72
2022-11-29T03:08:06.706Z,54.17
2022-11-29T03:08:32.318Z,54.45
2022-11-29T03:08:58.710Z,54.40
2022-11-29T03:09:25.088Z,53.50
2022-11-29T03:09:49.611Z,52.70
2022-11-29T03:10:18.252Z,52.63
2022-11-29T03:10:50.532Z,54.10
2022-11-29T03:11:17.816Z,53.25
2022-11-29T03:11:45.942Z,54.20
2022-11-29T03:12:16.716Z,52.75
2022-11-29T03:12:40.830Z,53.58
2022-11-29T03:13:05.801Z,52.45
2022-11-29T03:13:37.016Z,52.63
2022-11-29T03:14:09.652Z,54.25
2022-11-29T03:14:50.587Z,53.58
2022-11-29T03:15:21.495Z,54.35
2022-11-29T03:15:46.581Z,53.30
2022-11-29T03:16:13.943Z,54.10
2022-11-29T03:16:43.248Z,54.17
2022-11-29T03:17:13.111Z,52.35
2022-11-29T03:17:39.831Z,54.58
2022-11-29T03:18:15.092Z,54.42
2022-11-29T03:18:42.551Z,54.47
2022-11-29T03:19:10.930Z,54.20
2022-11-29T03:19:46.231Z,52.40
2022-11-29T03:20:20.155Z,55.53
2022-11-29T03:20:50.345Z,55.22
2022-11-29T03:21:18.075Z,54.20
2022-11-29T03:21:49.115Z,55.80
2022-11-29T03:22:15.356Z,54.58
2022-11-29T03:22:43.192Z,55.70
2022-11-29T03:23:15.527Z,54.53
2022-11-29T03:23:39.525Z,52.80
2022-11-29T03:24:05.113Z,54.35
2022-11-29T03:24:31.018Z,53.15
2022-11-29T03:24:56.320Z,53.63
2022-11-29T03:25:21.917Z,53.92
2022-11-29T03:25:46.537Z,53.60
2022-11-29T03:26:10.950Z,52.72
2022-11-29T03:26:35.836Z,51.85
2022-11-29T03:27:01.433Z,53.40
2022-11-29T03:27:26.445Z,52.58
2022-11-29T03:27:56.556Z,50.83
2022-11-29T03:28:20.436Z,50.92
2022-11-29T03:28:46.056Z,50.42
2022-11-29T03:29:12.370Z,50.75
2022-11-29T03:29:38.075Z,51.35
2022-11-29T03:30:00.861Z,50.72
2022-11-29T03:30:23.672Z,52.38
2022-11-29T03:30:50.038Z,50.53
2022-11-29T03:31:16.180Z,51.63
2022-11-29T03:31:41.732Z,50.50
2022-11-29T03:32:07.683Z,51.65
2022-11-29T03:32:33.622Z,50.95
2022-11-29T03:32:58.851Z,52.22
2022-11-29T03:33:27.091Z,50.67
2022-11-29T03:33:53.920Z,50.70
2022-11-29T03:34:20.335Z,50.35
2022-11-29T03:34:54.333Z,50.42
2022-11-29T03:35:22.586Z,50.92
2022-11-29T03:35:48.545Z,50.35
2022-11-29T03:36:14.430Z,49.42
2022-11-29T03:36:40.811Z,51.17
2022-11-29T03:37:06.581Z,51.47
2022-11-29T03:37:32.775Z,51.25
2022-11-29T03:37:58.486Z,50.45
2022-11-29T03:38:26.273Z,51.80
2022-11-29T03:38:49.106Z,50.47
2022-11-29T03:39:17.606Z,51.22
2022-11-29T03:39:45.606Z,52.80
2022-11-29T03:40:09.790Z,51.35
2022-11-29T03:40:39.526Z,51.92
2022-11-29T03:41:06.237Z,50.47
2022-11-29T03:41:31.197Z,52.85
2022-11-29T03:41:55.849Z,51.55
2022-11-29T03:42:22.001Z,53.10
2022-11-29T03:42:48.719Z,51.22
2022-11-29T03:43:14.576Z,51.60
2022-11-29T03:43:42.106Z,52.58
2022-11-29T03:44:09.920Z,51.40
2022-11-29T03:44:36.157Z,52.10
2022-11-29T03:45:07.912Z,51.35
2022-11-29T03:45:33.118Z,51.70
2022-11-29T03:45:57.955Z,51.75
2022-11-29T03:46:25.635Z,52.50
2022-11-29T03:46:52.780Z,54.08
2022-11-29T03:47:16.580Z,53.28
2022-11-29T03:47:41.442Z,52.30
2022-11-29T03:48:07.672Z,52.72
2022-11-29T03:48:33.303Z,53.92
2022-11-29T03:48:59.831Z,54.58
2022-11-29T03:49:26.070Z,55.35
2022-11-29T03:49:51.831Z,55.60
2022-11-29T03:50:16.630Z,55.67
2022-11-29T03:50:40.611Z,59.05
2022-11-29T03:51:05.871Z,58.08
2022-11-29T03:51:34.406Z,56.80
2022-11-29T03:52:01.347Z,55.95
2022-11-29T03:52:27.178Z,56.35
2022-11-29T03:52:52.075Z,55.53
2022-11-29T03:53:17.961Z,55.13
2022-11-29T03:53:45.650Z,53.03
2022-11-29T03:54:11.061Z,56.33
2022-11-29T03:54:38.796Z,54.85
2022-11-29T03:55:10.235Z,55.33
2022-11-29T03:55:45.390Z,54.58
2022-11-29T03:56:26.575Z,55.38
2022-11-29T03:56:50.136Z,55.67
2022-11-29T03:57:13.055Z,53.72
2022-11-29T03:57:40.777Z,53.42
2022-11-29T03:58:14.715Z,54.47
2022-11-29T03:58:46.576Z,54.58
2022-11-29T03:59:18.809Z,54.47
2022-11-29T03:59:49.106Z,54.50
2022-11-29T04:00:12.955Z,53.35
2022-11-29T04:00:41.916Z,54.65
2022-11-29T04:01:25.926Z,55.13
2022-11-29T04:02:22.156Z,54.20
2022-11-29T04:03:03.084Z,53.83
2022-11-29T04:03:59.117Z,52.45
2022-11-29T04:04:41.808Z,54.80
2022-11-29T04:05:36.620Z,54.95
2022-11-29T04:06:20.836Z,55.50
2022-11-29T04:06:51.511Z,55.70
2022-11-29T04:07:25.613Z,55.25
2022-11-29T04:08:01.392Z,54.08
2022-11-29T04:08:45.531Z,54.08
2022-11-29T04:09:24.407Z,54.45
2022-11-29T04:09:57.607Z,53.78
2022-11-29T04:10:34.615Z,54.15
2022-11-29T04:11:30.936Z,54.65
2022-11-29T04:12:17.242Z,53.72
2022-11-29T04:13:18.550Z,53.70
2022-11-29T04:13:55.910Z,53.47
2022-11-29T04:14:54.652Z,53.13
2022-11-29T04:15:53.075Z,53.97
2022-11-29T04:16:47.516Z,54.97
2022-11-29T04:17:36.004Z,56.67
2022-11-29T04:18:46.375Z,53.10
2022-11-29T04:19:44.472Z,53.72
2022-11-29T04:20:37.579Z,56.55
2022-11-29T04:21:50.637Z,54.97
2022-11-29T04:22:29.447Z,54.35
2022-11-29T04:23:50.481Z,56.17
2022-11-29T04:24:39.379Z,54.83
2022-11-29T04:25:30.360Z,52.53
2022-11-29T04:26:02.318Z,54.53
2022-11-29T04:27:06.872Z,53.15
2022-11-29T04:27:49.680Z,53.92
2022-11-29T04:28:35.167Z,53.05
2022-11-29T04:29:12.691Z,55.83
2022-11-29T04:30:01.281Z,54.83
2022-11-29T04:30:24.220Z,53.15
2022-11-29T04:30:51.871Z,51.97
2022-11-29T04:31:17.834Z,52.30
2022-11-29T04:31:50.535Z,54.72
2022-11-29T04:32:58.175Z,55.22
2022-11-29T04:33:47.731Z,54.63
2022-11-29T04:34:31.980Z,55.40
2022-11-29T04:35:11.436Z,53.67
2022-11-29T04:35:56.231Z,52.72
2022-11-29T04:36:46.146Z,54.90
2022-11-29T04:37:32.020Z,53.85
2022-11-29T04:38:18.941Z,53.55
2022-11-29T04:39:03.185Z,53.65
2022-11-29T04:39:46.302Z,51.88
2022-11-29T04:40:30.066Z,52.00
2022-11-29T04:41:02.546Z,51.13
2022-11-29T04:41:34.435Z,50.75
2022-11-29T04:42:10.550Z,50.47
2022-11-29T04:42:46.480Z,49.08
2022-11-29T04:43:35.736Z,49.63
2022-11-29T04:44:08.311Z,50.20
2022-11-29T04:44:53.003Z,48.70
2022-11-29T04:45:45.005Z,49.10
2022-11-29T04:46:33.392Z,48.60
2022-11-29T04:47:14.826Z,49.33
2022-11-29T04:47:47.726Z,48.53
2022-11-29T04:48:23.830Z,48.35
2022-11-29T04:49:03.371Z,49.78
2022-11-29T04:50:07.677Z,49.72
2022-11-29T04:50:43.511Z,50.10
2022-11-29T04:51:12.627Z,48.97
2022-11-29T04:51:48.895Z,50.20
2022-11-29T04:52:39.490Z,49.10
2022-11-29T04:53:24.211Z,49.85
2022-11-29T04:53:52.795Z,49.83
2022-11-29T04:54:19.937Z,50.10
2022-11-29T04:54:46.165Z,50.63
2022-11-29T04:55:19.428Z,50.30
2022-11-29T04:55:49.757Z,49.88
2022-11-29T04:56:16.001Z,50.22
2022-11-29T04:56:41.458Z,50.13
2022-11-29T04:57:07.566Z,49.28
2022-11-29T04:57:35.447Z,49.65
2022-11-29T04:58:01.690Z,49.85
2022-11-29T04:58:26.968Z,49.22
2022-11-29T04:58:55.591Z,48.65
2022-11-29T04:59:20.993Z,48.17
2022-11-29T04:59:45.055Z,49.70
2022-11-29T05:00:10.151Z,49.17
2022-11-29T05:00:35.196Z,50.05
2022-11-29T05:01:04.157Z,49.78
2022-11-29T05:01:31.550Z,49.65
2022-11-29T05:02:01.055Z,48.80
2022-11-29T05:02:32.834Z,47.92
2022-11-29T05:02:57.061Z,48.60
2022-11-29T05:03:23.917Z,48.80
2022-11-29T05:03:55.396Z,49.40
2022-11-29T05:04:22.933Z,49.90
2022-11-29T05:04:48.706Z,50.00
2022-11-29T05:05:18.886Z,49.13
2022-11-29T05:05:45.341Z,50.38
2022-11-29T05:06:20.645Z,48.83
2022-11-29T05:06:46.836Z,49.30
2022-11-29T05:07:14.530Z,49.53
2022-11-29T05:07:40.595Z,50.60
2022-11-29T05:08:12.980Z,50.67
2022-11-29T05:08:42.561Z,49.20
2022-11-29T05:09:10.912Z,48.40
2022-11-29T05:09:43.427Z,50.13
2022-11-29T05:10:20.613Z,51.45
2022-11-29T05:10:48.438Z,49.75
2022-11-29T05:11:14.711Z,49.95
2022-11-29T05:11:44.788Z,50.08
2022-11-29T05:12:11.212Z,47.88
2022-11-29T05:12:38.507Z,49.63
2022-11-29T05:13:06.551Z,49.65
2022-11-29T05:13:32.330Z,50.08
2022-11-29T05:13:57.500Z,49.35
2022-11-29T05:14:24.966Z,49.35
2022-11-29T05:14:57.367Z,49.97
2022-11-29T05:15:52.359Z,51.03
2022-11-29T05:16:21.490Z,49.10
2022-11-29T05:16:49.069Z,49.10
2022-11-29T05:17:32.534Z,50.03
2022-11-29T05:17:59.041Z,49.67
2022-11-29T05:18:26.710Z,50.38
2022-11-29T05:19:17.774Z,50.67
2022-11-29T05:19:49.760Z,49.78
2022-11-29T05:20:19.416Z,51.95
2022-11-29T05:20:47.014Z,49.53
2022-11-29T05:21:11.947Z,49.30
2022-11-29T05:21:41.606Z,50.80
2022-11-29T05:22:13.456Z,51.22
2022-11-29T05:22:40.166Z,51.70
2022-11-29T05:23:12.078Z,50.53
2022-11-29T05:23:44.972Z,50.17
2022-11-29T05:24:15.040Z,48.50
2022-11-29T05:24:48.607Z,50.88
2022-11-29T05:25:28.385Z,51.83
2022-11-29T05:25:53.346Z,50.53
2022-11-29T05:26:19.015Z,50.45
2022-11-29T05:26:45.011Z,52.42
2022-11-29T05:27:13.256Z,51.13
2022-11-29T05:27:42.472Z,50.28
2022-11-29T05:28:10.576Z,51.67
2022-11-29T05:28:36.931Z,50.53
2022-11-29T05:29:02.251Z,49.38
2022-11-29T05:29:28.001Z,49.22
2022-11-29T05:29:54.585Z,50.53
2022-11-29T05:30:19.610Z,50.72
2022-11-29T05:31:03.398Z,49.13
2022-11-29T05:31:38.603Z,49.28
2022-11-29T05:32:11.591Z,50.95
2022-11-29T05:32:35.991Z,50.42
2022-11-29T05:33:03.668Z,48.15
2022-11-29T05:33:35.382Z,48.67
2022-11-29T05:34:24.052Z,48.83
2022-11-29T05:34:55.854Z,50.25
2022-11-29T05:35:52.144Z,49.30
2022-11-29T05:36:17.972Z,50.35
2022-11-29T05:36:43.099Z,50.38
2022-11-29T05:37:11.001Z,48.45
2022-11-29T05:37:38.235Z,48.42
2022-11-29T05:38:03.946Z,48.38
2022-11-29T05:38:53.293Z,48.80
2022-11-29T05:39:40.290Z,48.90
2022-11-29T05:40:40.862Z,50.53
2022-11-29T05:41:12.951Z,49.33
2022-11-29T05:41:47.596Z,47.92
2022-11-29T05:42:26.035Z,49.40
2022-11-29T05:42:56.666Z,48.03
2022-11-29T05:43:33.511Z,49.10
2022-11-29T05:44:03.796Z,46.58
2022-11-29T05:44:31.031Z,48.30
2022-11-29T05:44:55.681Z,49.83
2022-11-29T05:45:21.172Z,48.15
2022-11-29T05:45:46.607Z,48.25
2022-11-29T05:46:13.002Z,47.58
2022-11-29T05:46:38.081Z,47.92
2022-11-29T05:47:02.166Z,48.40
2022-11-29T05:47:31.560Z,46.95
2022-11-29T05:47:56.797Z,48.40
2022-11-29T05:48:22.771Z,47.72
2022-11-29T05:48:49.950Z,48.97
2022-11-29T05:49:19.412Z,47.97
2022-11-29T05:49:43.671Z,48.30
2022-11-29T05:50:10.011Z,47.03
2022-11-29T05:50:35.610Z,47.63
2022-11-29T05:51:07.202Z,49.25
2022-11-29T05:51:41.970Z,47.92
2022-11-29T05:52:18.482Z,48.47
2022-11-29T05:52:47.666Z,47.33
2022-11-29T05:53:16.548Z,48.00
2022-11-29T05:53:43.463Z,46.53
2022-11-29T05:54:13.438Z,47.70
2022-11-29T05:54:37.786Z,48.55
2022-11-29T05:55:14.876Z,47.58
2022-11-29T05:55:41.777Z,46.90
2022-11-29T05:56:07.220Z,47.38
2022-11-29T05:56:36.811Z,48.30
2022-11-29T05:57:08.525Z,47.25
2022-11-29T05:57:36.647Z,48.63
2022-11-29T05:58:01.277Z,48.00
2022-11-29T05:58:30.878Z,47.20
2022-11-29T05:58:56.330Z,47.42
2022-11-29T05:59:20.738Z,46.58
2022-11-29T05:59:43.506Z,46.53
2022-11-29T06:00:07.844Z,46.05
2022-11-29T06:00:34.249Z,45.47
2022-11-29T06:01:02.074Z,47.13
2022-11-29T06:01:25.765Z,46.25
2022-11-29T06:01:54.570Z,46.83
2022-11-29T06:02:29.378Z,46.17
2022-11-29T06:02:56.367Z,45.45
2022-11-29T06:03:22.861Z,45.30
2022-11-29T06:03:51.026Z,46.45
2022-11-29T06:04:16.480Z,46.40
2022-11-29T06:04:50.166Z,47.42
2022-11-29T06:05:16.955Z,45.75
2022-11-29T06:05:46.952Z,44.28
2022-11-29T06:06:14.587Z,45.03
2022-11-29T06:06:43.691Z,43.92
2022-11-29T06:07:10.700Z,44.03
2022-11-29T06:07:38.492Z,44.50
2022-11-29T06:08:05.601Z,45.70